Time;durP1;ratioP1;P1;durP2;ratioP2;P2;SDS_P1;SDS_P2;PMS_P1;PMS_P2;Temp;Humidity;BMP_temperature;BMP_pressure;BME280_temperature;BME280_humidity;BME280_pressure;Samples;Min_cycle;Max_cycle;Signal;HPM_P1;HPM_P2
2022/06/02 00:01:33;;;;;;;11.45;9.48;;;;;;;17.33;81.73;99629.06;5014495;28;20467;-79
2022/06/02 00:04:16;;;;;;;11.73;10.40;;;;;;;17.31;81.08;99626.47;4988563;28;20069;-79
2022/06/02 00:06:57;;;;;;;14.18;10.52;;;;;;;17.29;80.87;99617.81;5011535;28;20532;-79
2022/06/02 00:09:39;;;;;;;11.63;10.07;;;;;;;17.32;81.32;99624.72;4991601;28;20034;-78
2022/06/02 00:12:24;;;;;;;15.38;11.00;;;;;;;17.23;81.72;99629.38;5006457;28;20080;-78
2022/06/02 00:15:01;;;;;;;12.27;10.02;;;;;;;17.21;82.10;99625.94;4994881;28;20042;-78
2022/06/02 00:17:53;;;;;;;11.80;10.18;;;;;;;17.25;82.36;99617.06;4988147;28;20041;-78
2022/06/02 00:20:28;;;;;;;12.50;10.57;;;;;;;17.26;82.00;99620.53;5008289;28;20042;-78
2022/06/02 00:22:56;;;;;;;14.52;11.40;;;;;;;17.24;81.96;99624.97;5002837;28;20497;-78
2022/06/02 00:25:40;;;;;;;11.57;8.60;;;;;;;17.26;82.40;99623.16;5006817;28;20109;-78
2022/06/02 00:28:18;;;;;;;8.88;7.05;;;;;;;17.34;82.88;99631.63;4984895;28;20524;-78
2022/06/02 00:30:57;;;;;;;13.68;11.38;;;;;;;17.41;81.94;99627.03;5011926;28;20511;-79
2022/06/02 00:33:40;;;;;;;17.48;12.45;;;;;;;17.35;81.58;99628.09;4984837;28;20044;-78
2022/06/02 00:36:17;;;;;;;14.15;12.05;;;;;;;17.36;81.84;99635.06;5008084;28;20038;-78
2022/06/02 00:38:43;;;;;;;14.80;11.93;;;;;;;17.36;81.92;99634.19;5008398;28;20043;-78
2022/06/02 00:41:20;;;;;;;18.25;11.95;;;;;;;17.35;82.23;99635.13;5009190;28;20133;-78
2022/06/02 00:44:01;;;;;;;15.27;12.00;;;;;;;17.31;82.45;99630.88;5005767;28;20531;-78
2022/06/02 00:46:49;;;;;;;16.48;12.15;;;;;;;17.34;82.91;99630.78;5006103;28;20038;-78
2022/06/02 00:49:19;;;;;;;16.38;11.82;;;;;;;17.38;82.50;99627.16;4995861;28;20050;-77
2022/06/02 00:51:50;;;;;;;14.95;11.50;;;;;;;17.35;82.28;99633.34;5004675;28;20455;-77
2022/06/02 00:57:39;;;;;;;15.25;12.65;;;;;;;17.37;82.71;99635.94;5000392;28;20042;-79
2022/06/02 01:00:19;;;;;;;15.55;12.13;;;;;;;17.36;83.02;99628.97;5003007;28;20034;-78
2022/06/02 01:02:53;;;;;;;16.05;11.75;;;;;;;17.34;82.90;99631.63;5005711;28;20043;-78
2022/06/02 01:06:01;;;;;;;15.98;12.07;;;;;;;17.32;83.18;99622.09;4986477;28;20576;-78
2022/06/02 01:08:39;;;;;;;17.38;12.27;;;;;;;17.24;83.17;99627.59;4992383;28;20053;-78
2022/06/02 01:11:08;;;;;;;30.20;24.75;;;;;;;17.24;83.87;99632.84;5005752;28;20050;-78
2022/06/02 01:13:56;;;;;;;18.90;13.48;;;;;;;17.24;84.22;99635.47;5003887;28;20030;-79
2022/06/02 01:16:31;;;;;;;16.00;12.48;;;;;;;17.16;84.09;99619.97;4999759;28;20051;-79
2022/06/02 01:19:15;;;;;;;18.35;12.35;;;;;;;17.23;84.31;99624.13;5003758;28;20132;-78
2022/06/02 01:22:23;;;;;;;16.88;12.23;;;;;;;17.29;84.42;99628.31;4988666;28;20054;-78
2022/06/02 01:25:21;;;;;;;18.65;13.35;;;;;;;17.27;84.22;99625.75;4979674;28;20140;-78
2022/06/02 01:27:57;;;;;;;16.95;12.65;;;;;;;17.21;84.03;99618.06;5005319;28;20069;-78
2022/06/02 01:30:47;;;;;;;19.00;12.57;;;;;;;17.26;84.43;99625.78;5008276;28;20038;-77
2022/06/02 01:33:31;;;;;;;19.33;12.65;;;;;;;17.27;84.47;99628.38;5003080;28;20042;-78
2022/06/02 01:36:22;;;;;;;17.95;12.20;;;;;;;17.31;84.51;99623.88;4995018;28;20040;-78
2022/06/02 01:39:04;;;;;;;16.85;11.85;;;;;;;17.31;84.41;99609.91;5011027;28;20041;-78
2022/06/02 01:41:58;;;;;;;18.23;11.98;;;;;;;17.37;84.17;99620.22;5005522;28;20045;-78
2022/06/02 01:44:31;;;;;;;18.05;12.50;;;;;;;17.36;83.95;99615.84;4993426;28;20448;-78
2022/06/02 01:47:14;;;;;;;21.50;13.35;;;;;;;17.36;84.15;99616.69;5005702;28;20168;-78
2022/06/02 01:49:46;;;;;;;18.48;12.02;;;;;;;17.36;83.79;99608.84;5007174;28;20052;-78
2022/06/02 01:52:16;;;;;;;19.75;12.35;;;;;;;17.39;84.21;99606.13;5005076;28;20050;-78
2022/06/02 01:55:03;;;;;;;20.13;12.75;;;;;;;17.37;83.91;99604.47;4997446;28;20046;-79
2022/06/02 01:57:50;;;;;;;16.95;11.90;;;;;;;17.35;84.64;99599.25;5006023;28;20622;-78
2022/06/02 02:00:20;;;;;;;20.90;13.82;;;;;;;17.33;84.85;99598.47;4993986;28;20516;-78
2022/06/02 02:03:16;;;;;;;20.02;13.20;;;;;;;17.41;85.14;99595.56;4975732;28;20058;-78
2022/06/02 02:05:48;;;;;;;24.42;13.30;;;;;;;17.34;84.00;99602.78;4994774;28;20045;-78
2022/06/02 02:08:19;;;;;;;18.45;12.80;;;;;;;17.32;84.62;99606.38;4982129;28;20045;-78
2022/06/02 02:10:58;;;;;;;23.65;13.05;;;;;;;17.33;84.81;99600.25;4994359;28;20038;-78
2022/06/02 02:13:35;;;;;;;21.88;14.98;;;;;;;17.41;85.26;99608.69;4982462;28;20091;-78
2022/06/02 02:16:10;;;;;;;19.88;14.05;;;;;;;17.46;85.05;99609.41;5007450;28;20046;-78
2022/06/02 02:18:39;;;;;;;18.20;12.40;;;;;;;17.44;84.46;99613.84;5005022;28;20038;-78
2022/06/02 02:21:39;;;;;;;20.58;13.30;;;;;;;17.44;85.00;99614.69;4990211;28;20529;-77
2022/06/02 02:24:28;;;;;;;23.15;13.60;;;;;;;17.49;84.70;99611.91;4966695;28;20358;-78
2022/06/02 02:27:04;;;;;;;20.45;13.15;;;;;;;17.49;84.47;99607.53;5006190;28;20125;-77
2022/06/02 02:30:00;;;;;;;20.77;13.65;;;;;;;17.46;84.70;99609.41;4989979;28;20049;-77
2022/06/02 02:32:55;;;;;;;18.33;12.07;;;;;;;17.50;84.86;99614.50;5006528;28;20042;-78
2022/06/02 02:35:34;;;;;;;19.00;12.73;;;;;;;17.44;84.32;99616.47;5011862;28;20404;-78
2022/06/02 02:38:08;;;;;;;11.85;8.07;;;;;;;17.53;84.87;99613.53;5011719;28;20042;-78
2022/06/02 02:40:43;;;;;;;19.30;13.63;;;;;;;17.51;83.87;99618.84;5009074;28;20038;-78
2022/06/02 02:43:22;;;;;;;23.83;13.68;;;;;;;17.62;84.26;99625.50;5009597;28;20093;-78
2022/06/02 02:46:01;;;;;;;18.05;12.90;;;;;;;17.64;83.77;99627.16;5009217;28;20038;-77
2022/06/02 02:48:27;;;;;;;20.35;12.95;;;;;;;17.60;83.38;99622.94;4994470;28;20049;-78
2022/06/02 02:51:03;;;;;;;21.25;13.35;;;;;;;17.55;83.69;99622.22;5008213;28;20066;-78
2022/06/02 02:53:40;;;;;;;20.67;12.52;;;;;;;17.63;84.00;99627.19;4994051;28;20038;-78
2022/06/02 02:56:18;;;;;;;19.65;12.77;;;;;;;17.60;83.80;99628.19;4998462;28;20401;-78
2022/06/02 02:58:51;;;;;;;20.60;13.63;;;;;;;17.60;83.71;99633.41;5010907;28;20096;-78
2022/06/02 03:01:27;;;;;;;18.70;13.55;;;;;;;17.59;83.63;99642.19;4982134;28;20034;-79
2022/06/02 03:04:32;;;;;;;19.58;14.00;;;;;;;17.60;83.77;99645.69;4997114;28;20046;-79
2022/06/02 03:06:59;;;;;;;19.67;14.70;;;;;;;17.56;83.91;99641.44;4972022;28;20076;-78
2022/06/02 03:09:30;;;;;;;19.30;13.43;;;;;;;17.58;84.23;99639.63;4995440;28;20030;-79
2022/06/02 03:11:59;;;;;;;17.30;12.80;;;;;;;17.60;84.14;99638.66;4999325;28;20568;-78
2022/06/02 03:14:48;;;;;;;18.92;12.43;;;;;;;17.59;83.77;99630.81;4999947;28;20113;-78
2022/06/02 03:17:36;;;;;;;15.82;12.70;;;;;;;17.61;83.84;99635.13;5014347;28;20034;-78
2022/06/02 03:20:08;;;;;;;16.48;12.57;;;;;;;17.66;83.63;99634.97;5007958;28;20040;-78
2022/06/02 03:22:52;;;;;;;17.77;13.35;;;;;;;17.63;83.25;99633.28;5009919;28;20042;-78
2022/06/02 03:25:41;;;;;;;16.48;12.52;;;;;;;17.65;83.67;99635.91;4999089;28;20034;-79
2022/06/02 03:28:29;;;;;;;18.15;11.85;;;;;;;17.68;83.64;99625.28;4996406;28;20030;-79
2022/06/02 03:31:15;;;;;;;18.20;11.93;;;;;;;17.72;83.55;99633.00;4999681;28;20042;-79
2022/06/02 03:33:53;;;;;;;18.08;13.00;;;;;;;17.73;82.91;99639.09;5008366;28;20062;-78
2022/06/02 03:36:56;;;;;;;19.30;13.65;;;;;;;17.75;83.48;99643.44;4977208;28;20050;-78
2022/06/02 03:40:01;;;;;;;14.23;11.45;;;;;;;17.80;83.57;99639.78;4988107;28;20057;-78
2022/06/02 03:43:01;;;;;;;15.80;12.30;;;;;;;17.90;82.89;99644.66;5004027;28;20042;-78
2022/06/02 03:45:48;;;;;;;15.52;12.15;;;;;;;17.89;82.05;99642.97;5011656;28;20049;-79
2022/06/02 03:48:17;;;;;;;14.80;12.82;;;;;;;17.85;82.01;99640.50;5011132;28;20027;-78
2022/06/02 03:50:58;;;;;;;15.45;11.23;;;;;;;17.93;82.89;99641.09;5010815;28;20058;-78
2022/06/02 03:53:23;;;;;;;15.70;13.05;;;;;;;17.86;81.82;99644.81;4997147;28;20073;-78
2022/06/02 03:56:07;;;;;;;18.50;13.35;;;;;;;17.81;82.40;99647.59;5012895;28;20065;-77
2022/06/02 03:58:45;;;;;;;15.18;11.98;;;;;;;17.82;82.45;99644.06;5011633;28;20042;-77
2022/06/02 04:01:12;;;;;;;14.10;10.75;;;;;;;17.75;83.06;99643.44;4998333;28;20473;-77
2022/06/02 04:03:50;;;;;;;27.17;21.80;;;;;;;17.86;83.11;99650.06;4999175;28;20100;-78
2022/06/02 04:06:26;;;;;;;17.42;12.77;;;;;;;17.76;82.39;99634.63;4999541;28;20045;-77
2022/06/02 04:09:20;;;;;;;19.33;12.43;;;;;;;17.86;83.27;99643.06;5008814;28;20501;-77
2022/06/02 04:15:33;;;;;;;19.08;12.55;;;;;;;17.99;82.65;99635.63;4988591;28;20086;-78
2022/06/02 04:18:32;;;;;;;22.48;11.68;;;;;;;18.14;82.01;99637.69;4985376;28;20064;-78
2022/06/02 04:21:24;;;;;;;14.70;11.18;;;;;;;18.19;81.42;99637.53;4967888;28;20116;-78
2022/06/02 04:24:11;;;;;;;19.80;12.90;;;;;;;18.18;81.13;99639.31;4992615;28;20053;-78
2022/06/02 04:26:58;;;;;;;16.13;11.82;;;;;;;18.17;81.44;99636.75;4998556;28;20034;-83
2022/06/02 04:29:43;;;;;;;19.65;12.85;;;;;;;18.08;81.46;99635.28;5010167;28;20042;-78
2022/06/02 04:32:14;;;;;;;21.83;13.80;;;;;;;18.10;82.13;99633.50;4983674;28;20105;-78
2022/06/02 04:35:05;;;;;;;19.23;13.35;;;;;;;18.14;82.05;99623.72;5006660;28;20439;-78
2022/06/02 04:37:52;;;;;;;19.73;12.98;;;;;;;18.27;81.24;99631.09;5013502;28;20041;-80
2022/06/02 04:40:36;;;;;;;18.02;13.13;;;;;;;18.28;81.37;99627.59;5014696;28;20548;-82
2022/06/02 04:43:19;;;;;;;18.17;12.57;;;;;;;18.38;81.10;99628.09;4996939;28;20416;-77
2022/06/02 04:46:09;;;;;;;20.58;14.15;;;;;;;18.50;80.87;99634.66;5013536;28;20044;-79
2022/06/02 04:49:00;;;;;;;19.45;13.02;;;;;;;18.56;80.15;99644.97;5029500;28;20505;-78
2022/06/02 04:51:41;;;;;;;20.23;13.98;;;;;;;18.49;79.85;99651.34;5013537;28;20509;-78
2022/06/02 04:54:13;;;;;;;18.80;13.07;;;;;;;18.52;79.89;99648.59;4997236;28;20034;-79
2022/06/02 04:56:47;;;;;;;21.17;13.18;;;;;;;18.54;79.91;99644.13;5013646;28;20046;-78
2022/06/02 04:59:26;;;;;;;16.02;12.73;;;;;;;18.62;79.73;99657.00;4996772;28;20393;-78
2022/06/02 05:02:01;;;;;;;18.73;12.90;;;;;;;18.60;79.69;99657.06;4996896;28;20082;-79
2022/06/02 05:04:33;;;;;;;22.42;12.30;;;;;;;18.67;79.35;99658.53;5004523;28;20493;-79
2022/06/02 05:07:26;;;;;;;16.67;12.43;;;;;;;18.56;79.38;99646.72;5013135;28;20394;-78
2022/06/02 05:10:20;;;;;;;20.70;13.75;;;;;;;18.66;79.92;99650.72;5013802;28;20053;-78
2022/06/02 05:13:07;;;;;;;15.13;11.70;;;;;;;18.76;79.54;99647.72;4999256;28;20497;-78
2022/06/02 05:16:11;;;;;;;17.23;11.52;;;;;;;18.88;78.62;99653.44;5029379;28;20053;-80
2022/06/02 05:18:46;;;;;;;10.80;9.18;;;;;;;18.88;78.66;99653.44;5012967;28;20045;-78
2022/06/02 05:21:34;;;;;;;17.25;12.18;;;;;;;18.86;78.21;99657.88;5013895;28;20034;-78
2022/06/02 05:24:25;;;;;;;18.90;12.20;;;;;;;18.84;78.50;99657.09;5013774;28;20038;-78
2022/06/02 05:27:09;;;;;;;19.25;11.40;;;;;;;18.91;78.75;99651.53;5004954;28;20073;-78
2022/06/02 05:30:03;;;;;;;17.52;11.07;;;;;;;19.05;78.20;99649.22;4996175;28;20042;-82
2022/06/02 05:32:37;;;;;;;21.75;11.27;;;;;;;19.10;77.36;99659.56;4985362;28;20046;-78
2022/06/02 05:35:21;;;;;;;14.10;11.13;;;;;;;19.06;77.62;99655.38;4993091;28;20044;-81
2022/06/02 05:38:18;;;;;;;18.08;11.10;;;;;;;19.13;77.61;99653.34;5006010;28;20042;-77
2022/06/02 05:41:13;;;;;;;15.70;11.77;;;;;;;19.18;77.37;99644.34;4992789;28;20053;-79
2022/06/02 05:43:44;;;;;;;19.10;11.98;;;;;;;19.35;76.59;99650.72;5009395;28;20671;-78
2022/06/02 05:46:16;;;;;;;18.20;11.13;;;;;;;19.50;75.78;99650.09;4992819;28;20049;-77
2022/06/02 05:49:03;;;;;;;15.30;11.65;;;;;;;19.59;75.24;99649.72;4993567;28;20041;-79
2022/06/02 05:51:47;;;;;;;14.82;12.43;;;;;;;19.47;75.02;99643.19;4992479;28;20425;-79
2022/06/02 05:54:22;;;;;;;17.95;11.73;;;;;;;19.45;75.69;99650.28;5006540;28;20049;-79
2022/06/02 05:57:00;;;;;;;16.30;11.05;;;;;;;19.49;75.58;99657.13;5011669;28;20038;-79
2022/06/02 05:59:44;;;;;;;15.27;11.07;;;;;;;19.50;75.92;99657.97;4976615;28;20409;-78
2022/06/02 06:02:24;;;;;;;12.95;11.18;;;;;;;19.59;75.57;99649.72;4995153;28;20457;-79
2022/06/02 06:05:08;;;;;;;15.20;11.35;;;;;;;19.60;75.61;99653.19;4982980;28;20038;-79
2022/06/02 06:07:55;;;;;;;15.57;11.77;;;;;;;19.67;74.96;99658.19;5013539;28;20041;-79
2022/06/02 06:10:48;;;;;;;12.05;9.13;;;;;;;19.77;74.82;99662.13;5005243;28;20035;-77
2022/06/02 06:13:31;;;;;;;15.50;11.10;;;;;;;19.72;74.83;99658.00;4986612;28;20068;-78
2022/06/02 06:16:18;;;;;;;14.32;10.63;;;;;;;19.81;74.90;99657.59;4999478;28;20120;-78
2022/06/02 06:18:51;;;;;;;13.02;10.45;;;;;;;19.72;74.65;99643.06;4996852;28;20039;-79
2022/06/02 06:21:26;;;;;;;11.93;10.23;;;;;;;19.90;74.19;99661.63;5008552;28;20074;-78
2022/06/02 06:24:02;;;;;;;14.68;10.10;;;;;;;19.96;74.07;99661.34;5008504;28;20038;-78
2022/06/02 06:26:40;;;;;;;;;;;;;;;20.13;74.08;99661.50;5006070;28;20125;-77
2022/06/02 06:29:31;;;;;;;15.63;10.00;;;;;;;20.20;73.06;99659.44;4997557;28;19925;-78
2022/06/02 06:32:15;;;;;;;16.70;11.13;;;;;;;20.20;72.96;99660.28;4996341;28;20038;-78
2022/06/02 06:34:41;;;;;;;12.65;10.35;;;;;;;20.26;72.88;99667.94;4995733;28;20068;-81
2022/06/02 06:37:31;;;;;;;21.80;11.75;;;;;;;20.33;72.85;99675.56;4998203;28;20116;-78
2022/06/02 06:40:16;;;;;;;12.35;10.27;;;;;;;20.43;72.11;99661.06;4991631;28;20079;-79
2022/06/02 06:42:51;;;;;;;16.00;10.23;;;;;;;20.47;72.13;99660.00;4997452;28;20051;-79
2022/06/02 06:45:20;;;;;;;12.20;9.48;;;;;;;20.57;71.79;99658.69;4991860;28;20093;-79
2022/06/02 06:47:56;;;;;;;11.77;9.75;;;;;;;20.61;71.54;99652.38;5012758;28;20062;-79
2022/06/02 06:50:25;;;;;;;11.68;8.70;;;;;;;20.77;71.54;99649.91;4999166;28;20072;-77
2022/06/02 06:53:00;;;;;;;16.77;9.20;;;;;;;21.09;71.04;99656.31;4996875;28;20093;-77
2022/06/02 06:55:47;;;;;;;11.57;9.65;;;;;;;21.44;69.72;99645.84;5002411;28;20481;-78
2022/06/02 06:58:39;;;;;;;10.90;8.80;;;;;;;21.83;68.69;99654.44;4989868;28;20143;-79
2022/06/02 07:01:36;;;;;;;14.25;9.73;;;;;;;21.96;66.52;99665.25;4996875;28;20050;-78
2022/06/02 07:04:44;;;;;;;14.48;8.93;;;;;;;22.15;66.64;99656.41;4997263;28;20126;-80
2022/06/02 07:07:25;;;;;;;15.18;9.40;;;;;;;22.24;65.99;99643.56;4994588;28;20056;-78
2022/06/02 07:10:00;;;;;;;18.60;10.30;;;;;;;22.32;65.08;99659.88;5000665;28;20038;-79
2022/06/02 07:12:50;;;;;;;16.13;9.23;;;;;;;22.45;65.06;99659.22;5010663;28;20034;-79
2022/06/02 07:15:16;;;;;;;9.52;8.13;;;;;;;22.54;64.26;99662.25;4984441;28;20468;-78
2022/06/02 07:17:59;;;;;;;11.70;6.97;;;;;;;22.61;64.45;99667.19;5003661;28;20121;-78
2022/06/02 07:20:32;;;;;;;11.98;8.07;;;;;;;22.75;63.97;99664.66;4971654;28;20413;-80
2022/06/02 07:23:07;;;;;;;9.93;8.00;;;;;;;22.80;63.96;99671.41;5010993;28;20046;-78
2022/06/02 07:26:15;;;;;;;9.13;7.00;;;;;;;23.07;63.63;99653.19;5013067;28;20057;-79
2022/06/02 07:29:03;;;;;;;10.57;7.82;;;;;;;23.20;62.70;99666.59;5007705;28;20100;-78
2022/06/02 07:31:38;;;;;;;8.90;7.28;;;;;;;23.30;62.67;99673.09;5010950;28;20070;-79
2022/06/02 07:34:45;;;;;;;11.60;7.70;;;;;;;23.32;61.98;99665.94;4991884;28;20050;-78
2022/06/02 07:37:21;;;;;;;9.88;7.32;;;;;;;23.46;61.88;99672.22;4974628;28;20053;-79
2022/06/02 07:40:05;;;;;;;7.32;6.55;;;;;;;23.65;60.75;99670.25;4985968;28;20039;-78
2022/06/02 07:42:58;;;;;;;8.90;6.95;;;;;;;23.83;60.71;99673.63;5006376;28;20042;-78
2022/06/02 07:45:31;;;;;;;9.13;7.28;;;;;;;23.75;60.30;99667.94;5009878;28;20031;-78
2022/06/02 07:48:06;;;;;;;8.05;7.18;;;;;;;23.99;59.92;99681.53;5010749;28;20061;-79
2022/06/02 07:50:34;;;;;;;8.30;6.90;;;;;;;24.09;59.62;99672.09;5010850;28;20100;-79
2022/06/02 07:53:13;;;;;;;8.57;6.43;;;;;;;24.11;59.73;99679.97;5011485;28;20038;-79
2022/06/02 07:55:45;;;;;;;7.50;6.70;;;;;;;24.14;60.09;99683.25;5011298;28;20109;-84
2022/06/02 07:58:20;;;;;;;8.45;6.22;;;;;;;24.20;59.93;99680.25;4994684;28;20034;-79
2022/06/02 08:01:16;;;;;;;9.43;6.57;;;;;;;24.28;59.84;99677.13;5021638;28;20044;-80
2022/06/02 08:04:04;;;;;;;7.73;6.40;;;;;;;24.54;59.41;99681.72;5013357;28;20577;-79
2022/06/02 08:06:32;;;;;;;7.65;6.05;;;;;;;24.92;58.11;99667.03;5005955;28;20287;-79
2022/06/02 08:09:47;;;;;;;6.97;5.90;;;;;;;25.27;58.04;99664.81;5012972;28;20478;-79
2022/06/02 08:12:56;;;;;;;10.13;6.40;;;;;;;25.66;55.10;99674.66;4983719;28;20058;-79
2022/06/02 08:15:35;;;;;;;6.78;5.40;;;;;;;25.85;53.94;99659.19;5004582;28;20046;-79
2022/06/02 08:18:04;;;;;;;6.82;5.32;;;;;;;26.03;53.60;99678.38;4985764;28;20050;-79
2022/06/02 08:20:32;;;;;;;7.03;5.40;;;;;;;25.98;53.57;99672.53;5020430;28;20486;-79
2022/06/02 08:23:04;;;;;;;8.30;5.93;;;;;;;26.12;53.53;99668.06;5010648;28;20138;-79
2022/06/02 08:25:45;;;;;;;8.63;6.07;;;;;;;26.09;52.54;99655.84;5020228;28;20095;-84
2022/06/02 08:28:26;;;;;;;7.15;6.13;;;;;;;26.00;53.10;99672.41;4986353;28;20033;-84
2022/06/02 08:31:04;;;;;;;6.38;5.78;;;;;;;26.00;53.81;99672.41;5006453;28;20046;-83
2022/06/02 08:33:44;;;;;;;8.05;6.10;;;;;;;25.91;53.41;99665.91;4979939;28;20038;-82
2022/06/02 08:36:14;;;;;;;8.38;5.90;;;;;;;26.06;53.32;99661.34;5006326;28;20052;-80
2022/06/02 08:39:02;;;;;;;6.30;5.70;;;;;;;26.08;53.10;99660.31;5013756;28;20069;-79
2022/06/02 08:41:40;;;;;;;9.35;5.90;;;;;;;26.03;53.64;99659.78;5029999;28;20037;-79
2022/06/02 08:44:23;;;;;;;7.65;6.40;;;;;;;25.93;53.91;99663.13;5005904;28;20044;-79
2022/06/02 08:46:49;;;;;;;10.57;5.65;;;;;;;25.99;53.82;99660.94;5013382;28;20408;-77
2022/06/02 08:49:39;;;;;;;5.80;5.30;;;;;;;26.33;53.47;99654.13;5014267;28;20022;-78
2022/06/02 08:52:07;;;;;;;6.45;5.18;;;;;;;26.80;52.46;99651.78;5029556;28;20045;-79
2022/06/02 08:54:52;;;;;;;10.02;5.10;;;;;;;27.28;50.72;99642.09;5014360;28;20053;-81
2022/06/02 08:57:24;;;;;;;6.25;4.90;;;;;;;27.62;49.49;99639.56;5029754;28;20029;-79
2022/06/02 09:00:21;;;;;;;8.20;5.50;;;;;;;27.99;48.64;99642.13;4996848;28;20038;-80
2022/06/02 09:03:17;;;;;;;5.57;4.90;;;;;;;28.20;48.29;99640.50;5013412;28;20535;-80
2022/06/02 09:06:33;;;;;;;7.80;4.57;;;;;;;28.67;47.32;99627.94;5029408;28;20501;-78
2022/06/02 09:09:33;;;;;;;6.47;5.00;;;;;;;28.97;45.72;99619.31;5004446;28;20389;-79
2022/06/02 09:12:20;;;;;;;7.43;4.90;;;;;;;28.99;45.97;99619.19;5014067;28;20100;-80
2022/06/02 09:15:30;;;;;;;10.07;5.70;;;;;;;29.17;45.75;99601.66;4991107;28;20041;-85
2022/06/02 09:18:37;;;;;;;6.82;4.90;;;;;;;29.79;43.82;99595.59;4978529;28;20382;-80
2022/06/02 09:21:21;;;;;;;5.80;5.05;;;;;;;30.12;43.88;99585.66;5012856;28;20420;-79
2022/06/02 09:23:46;;;;;;;8.77;5.57;;;;;;;30.50;41.96;99574.28;5029181;28;20045;-80
2022/06/02 09:26:49;;;;;;;7.63;4.82;;;;;;;30.87;41.92;99566.53;5014093;28;20042;-80
2022/06/02 09:29:21;;;;;;;7.93;5.55;;;;;;;31.31;39.80;99561.66;5003527;28;20042;-80
2022/06/02 09:31:55;;;;;;;9.27;5.38;;;;;;;31.70;39.73;99558.94;5026251;28;20041;-79
2022/06/02 09:34:53;;;;;;;8.30;5.40;;;;;;;31.82;39.60;99562.31;4989580;28;20497;-79
2022/06/02 09:37:40;;;;;;;7.80;5.10;;;;;;;31.95;38.34;99570.94;5010929;28;20775;-79
2022/06/02 09:40:28;;;;;;;8.07;4.70;;;;;;;32.02;38.67;99571.19;5010535;28;20046;-79
2022/06/02 09:43:07;;;;;;;7.10;3.78;;;;;;;31.73;38.80;99573.91;4988283;28;20042;-77
2022/06/02 09:46:02;;;;;;;7.30;4.38;;;;;;;31.03;40.28;99574.03;5004595;28;20046;-79
2022/06/02 09:48:49;;;;;;;5.22;3.75;;;;;;;31.00;40.82;99570.78;5007081;28;20045;-76
2022/06/02 09:51:52;;;;;;;6.78;3.70;;;;;;;31.62;39.66;99580.28;5007626;28;20050;-76
2022/06/02 09:54:24;;;;;;;8.05;4.10;;;;;;;32.11;38.18;99570.31;4999775;28;20038;-78
2022/06/02 10:00:18;;;;;;;7.53;4.25;;;;;;;32.76;37.46;99573.00;5018127;28;20049;-76
2022/06/02 10:02:58;;;;;;;4.93;3.80;;;;;;;32.87;37.44;99576.34;5011567;28;20136;-76
2022/06/02 10:05:40;;;;;;;8.13;3.90;;;;;;;33.13;35.67;99584.53;5004970;28;20041;-77
2022/06/02 10:08:24;;;;;;;4.32;2.28;;;;;;;32.92;35.14;99583.97;5024659;28;20042;-76
2022/06/02 10:11:11;;;;;;;7.75;3.15;;;;;;;32.40;37.38;99582.81;5009567;28;20061;-76
2022/06/02 10:14:01;;;;;;;9.10;3.30;;;;;;;32.16;36.90;99586.81;5002860;28;20088;-78
2022/06/02 10:17:05;;;;;;;8.27;3.17;;;;;;;32.48;37.64;99585.59;5006951;28;20038;-79
2022/06/02 10:19:33;;;;;;;4.22;3.15;;;;;;;32.52;36.71;99578.94;5007349;28;20049;-76
2022/06/02 10:22:05;;;;;;;6.38;2.78;;;;;;;32.16;36.45;99570.72;5007141;28;20041;-75
2022/06/02 10:24:55;;;;;;;7.05;3.22;;;;;;;31.56;37.37;99580.84;5004365;28;20037;-75
2022/06/02 10:27:39;;;;;;;4.85;3.40;;;;;;;31.46;37.65;99580.00;5020806;28;20501;-78
2022/06/02 10:30:42;;;;;;;6.03;3.10;;;;;;;31.72;36.93;99574.91;5002411;28;20034;-77
2022/06/02 10:33:26;;;;;;;8.10;3.22;;;;;;;32.05;36.80;99568.22;5004010;28;20444;-77
2022/06/02 10:36:04;;;;;;;11.52;3.20;;;;;;;32.28;35.95;99560.66;5023062;28;20041;-79
2022/06/02 10:38:40;;;;;;;7.80;2.95;;;;;;;32.28;36.99;99553.44;5009479;28;20410;-77
2022/06/02 10:41:10;;;;;;;6.20;3.00;;;;;;;32.33;35.80;99553.00;4994286;28;20034;-77
2022/06/02 10:43:58;;;;;;;5.63;3.50;;;;;;;32.02;36.66;99557.75;5004860;28;20453;-78
2022/06/02 10:46:48;;;;;;;6.13;3.22;;;;;;;31.54;37.74;99559.53;5022314;28;20060;-76
2022/06/02 10:49:33;;;;;;;9.63;3.50;;;;;;;31.26;38.78;99560.38;5004176;28;20748;-78
2022/06/02 10:52:37;;;;;;;7.82;3.80;;;;;;;31.25;39.12;99564.00;5020508;28;20531;-81
2022/06/02 10:55:09;;;;;;;6.22;3.50;;;;;;;31.35;37.80;99571.13;5004214;28;20129;-77
2022/06/02 10:57:56;;;;;;;7.22;3.83;;;;;;;31.34;38.80;99580.16;5007835;28;20053;-78
2022/06/02 11:00:59;;;;;;;7.93;3.35;;;;;;;31.31;38.47;99580.44;5010004;28;20101;-77
2022/06/02 11:04:02;;;;;;;5.28;3.75;;;;;;;31.31;38.79;99582.28;5011436;28;20045;-77
2022/06/02 11:06:56;;;;;;;5.78;3.42;;;;;;;31.04;38.79;99593.63;5015684;28;20485;-78
2022/06/02 11:09:43;;;;;;;5.85;3.25;;;;;;;30.69;39.40;99581.53;5025630;28;20034;-79
2022/06/02 11:12:30;;;;;;;5.38;3.45;;;;;;;30.29;39.41;99578.88;5025194;28;20392;-77
2022/06/02 11:15:19;;;;;;;7.05;3.35;;;;;;;29.76;40.64;99573.59;5015357;28;20033;-78
2022/06/02 11:17:48;;;;;;;6.65;3.47;;;;;;;29.41;41.52;99565.84;5014316;28;20040;-79
2022/06/02 11:20:44;;;;;;;7.15;3.85;;;;;;;29.18;41.81;99562.44;5015548;28;20038;-77
2022/06/02 11:23:52;;;;;;;9.40;4.20;;;;;;;28.71;42.72;99568.00;5027170;28;20548;-78
2022/06/02 11:26:43;;;;;;;6.15;3.67;;;;;;;28.23;44.06;99576.25;5005484;28;20386;-78
2022/06/02 11:29:37;;;;;;;5.90;3.35;;;;;;;27.91;44.92;99589.44;5011786;28;20029;-77
2022/06/02 11:32:32;;;;;;;6.80;3.80;;;;;;;27.63;45.68;99590.66;4998850;28;20045;-78
2022/06/02 11:34:58;;;;;;;5.82;4.00;;;;;;;27.42;46.35;99606.44;5011784;28;20092;-77
2022/06/02 11:37:33;;;;;;;8.82;3.88;;;;;;;27.16;46.39;99616.34;5027881;28;20026;-77
2022/06/02 11:40:26;;;;;;;6.90;3.63;;;;;;;26.92;47.13;99623.44;5013748;28;20057;-77
2022/06/02 11:42:55;;;;;;;5.85;3.45;;;;;;;26.70;48.07;99619.66;5025629;28;20046;-78
2022/06/02 11:45:50;;;;;;;6.10;3.63;;;;;;;26.46;49.25;99610.75;5012997;28;20034;-78
2022/06/02 11:48:53;;;;;;;4.65;3.50;;;;;;;26.44;49.09;99639.28;5029967;28;20045;-79
2022/06/02 11:51:22;;;;;;;5.20;3.58;;;;;;;26.21;50.48;99630.22;5030065;28;20061;-78
2022/06/02 11:54:12;;;;;;;4.65;3.60;;;;;;;26.04;51.07;99626.06;5015131;28;20050;-77
2022/06/02 11:57:02;;;;;;;5.45;3.63;;;;;;;25.88;51.94;99615.59;5030525;28;20049;-77
2022/06/02 11:59:53;;;;;;;6.65;4.22;;;;;;;25.92;52.13;99622.41;4987444;28;20057;-77
2022/06/02 12:02:24;;;;;;;6.43;3.75;;;;;;;25.81;53.08;99609.03;5011344;28;20408;-77
2022/06/02 12:04:56;;;;;;;5.03;4.03;;;;;;;25.70;53.50;99616.81;5027414;28;20046;-77
2022/06/02 12:07:49;;;;;;;5.28;4.10;;;;;;;25.62;53.77;99609.38;5010566;28;20044;-77
2022/06/02 12:10:52;;;;;;;6.25;3.95;;;;;;;25.59;54.05;99612.22;5028478;28;20072;-77
2022/06/02 12:13:26;;;;;;;9.88;4.00;;;;;;;25.60;54.05;99608.63;5014751;28;20034;-76
2022/06/02 12:16:16;;;;;;;5.43;4.05;;;;;;;25.52;54.55;99617.13;5013452;28;20509;-77
2022/06/02 12:19:00;;;;;;;5.97;3.90;;;;;;;25.52;54.80;99605.63;5008269;28;20057;-79
2022/06/02 12:21:27;;;;;;;6.55;4.57;;;;;;;25.44;55.18;99606.16;5029891;28;20088;-78
2022/06/02 12:24:08;;;;;;;5.50;4.25;;;;;;;25.34;55.05;99605.91;5013241;28;20049;-78
2022/06/02 12:26:48;;;;;;;8.23;4.03;;;;;;;25.32;55.47;99602.47;4998622;28;20117;-78
2022/06/02 12:29:32;;;;;;;8.25;4.30;;;;;;;25.42;55.63;99601.88;5010216;28;20485;-79
2022/06/02 12:32:22;;;;;;;7.03;4.07;;;;;;;25.42;55.48;99597.41;5027038;28;20037;-77
2022/06/02 12:35:09;;;;;;;7.82;4.30;;;;;;;25.39;55.53;99591.47;5014875;28;20055;-77
2022/06/02 12:37:47;;;;;;;7.20;3.95;;;;;;;25.37;55.39;99590.72;5013694;28;20132;-77
2022/06/02 12:40:33;;;;;;;5.78;4.22;;;;;;;25.33;55.57;99577.63;5028286;28;20049;-76
2022/06/02 12:43:20;;;;;;;7.93;4.45;;;;;;;25.20;56.28;99574.09;4997092;28;20095;-76
2022/06/02 12:46:06;;;;;;;5.88;4.30;;;;;;;25.15;56.04;99562.06;5008277;28;20091;-78
2022/06/02 12:49:00;;;;;;;9.13;4.22;;;;;;;25.21;55.87;99561.69;5007487;28;20033;-76